Time;durP1;ratioP1;P1;durP2;ratioP2;P2;SDS_P1;SDS_P2;PMS_P1;PMS_P2;Temp;Humidity;BMP_temperature;BMP_pressure;BME280_temperature;BME280_humidity;BME280_pressure;Samples;Min_cycle;Max_cycle;Signal;HPM_P1;HPM_P2
2021/06/18 00:00:29;;;;;;;0.20;0.20;;;19.20;99.90;;;;;;5104607;28;20176;-69
2021/06/18 00:02:55;;;;;;;0.55;0.55;;;19.30;99.90;;;;;;5072877;28;20160;-68
2021/06/18 00:05:22;;;;;;;0.52;0.50;;;19.20;99.90;;;;;;5090982;28;20160;-68
2021/06/18 00:07:49;;;;;;;0.75;0.75;;;19.20;99.90;;;;;;5090888;28;20613;-69
2021/06/18 00:10:18;;;;;;;0.95;0.90;;;19.20;99.90;;;;;;5090388;28;20183;-69
2021/06/18 00:12:44;;;;;;;0.20;0.20;;;19.20;99.90;;;;;;5090211;28;20152;-69
2021/06/18 00:15:11;;;;;;;1.08;1.08;;;19.20;99.90;;;;;;5090159;28;20171;-69
2021/06/18 00:17:37;;;;;;;0.40;0.40;;;19.20;99.90;;;;;;5090209;28;20156;-69
2021/06/18 00:20:05;;;;;;;0.55;0.55;;;19.20;99.90;;;;;;5090177;28;20223;-69
2021/06/18 00:22:31;;;;;;;1.00;0.25;;;19.10;99.90;;;;;;5090213;28;20174;-69
2021/06/18 00:24:57;;;;;;;0.32;0.32;;;19.10;99.90;;;;;;5090091;28;20176;-69
2021/06/18 00:27:24;;;;;;;0.50;0.50;;;19.00;99.90;;;;;;5090147;28;20565;-69
2021/06/18 00:29:50;;;;;;;2.28;1.30;;;19.00;99.90;;;;;;5089248;28;20224;-69
2021/06/18 00:32:17;;;;;;;1.60;1.50;;;18.90;99.90;;;;;;5089890;28;20195;-69
2021/06/18 00:34:42;;;;;;;0.75;0.70;;;18.90;99.90;;;;;;5071741;28;20199;-69
2021/06/18 00:37:08;;;;;;;0.30;0.30;;;18.80;99.90;;;;;;5089863;28;20171;-69
2021/06/18 00:39:34;;;;;;;2.13;0.52;;;18.80;99.90;;;;;;5089728;28;20705;-68
2021/06/18 00:42:02;;;;;;;1.25;0.85;;;18.80;99.90;;;;;;5083211;28;175765;-69
2021/06/18 00:44:28;;;;;;;0.30;0.30;;;18.80;99.90;;;;;;5072812;28;20183;-69
2021/06/18 00:46:54;;;;;;;0.57;0.57;;;18.80;99.90;;;;;;5090698;28;20185;-69
2021/06/18 00:49:22;;;;;;;1.52;0.75;;;18.80;99.90;;;;;;5090682;28;20251;-68
2021/06/18 00:51:49;;;;;;;0.30;0.30;;;18.80;99.90;;;;;;5090572;28;20191;-69
2021/06/18 00:54:27;;;;;;;2.38;1.60;;;18.80;99.90;;;;;;5071700;28;20226;-69
2021/06/18 00:56:55;;;;;;;0.40;0.28;;;18.90;99.90;;;;;;5090031;28;20191;-68
2021/06/18 00:59:23;;;;;;;1.83;1.05;;;18.90;99.90;;;;;;5090370;28;20221;-69
2021/06/18 01:01:50;;;;;;;0.45;0.45;;;18.90;99.90;;;;;;5090280;28;20191;-68
2021/06/18 01:04:17;;;;;;;0.10;0.10;;;19.00;99.90;;;;;;5090326;28;20306;-69
2021/06/18 01:06:45;;;;;;;0.73;0.73;;;18.90;99.90;;;;;;5089848;28;20156;-68
2021/06/18 01:09:13;;;;;;;0.35;0.35;;;19.00;99.90;;;;;;5090358;28;20152;-68
2021/06/18 01:12:15;;;;;;;0.73;0.73;;;19.00;99.90;;;;;;5089494;28;20192;-68
2021/06/18 01:15:00;;;;;;;0.75;0.75;;;19.10;99.90;;;;;;4988657;28;20197;-68
2021/06/18 01:17:41;;;;;;;1.98;0.88;;;19.10;99.90;;;;;;4988928;28;20221;-68
2021/06/18 01:20:44;;;;;;;3.22;0.60;;;19.10;99.90;;;;;;4988866;28;20195;-68
2021/06/18 01:23:45;;;;;;;0.47;0.47;;;19.00;99.90;;;;;;4988788;28;20175;-68
2021/06/18 01:26:23;;;;;;;17.55;1.80;;;19.00;99.90;;;;;;4976566;28;20190;-68
2021/06/18 01:28:55;;;;;;;0.70;0.70;;;19.10;99.90;;;;;;4988559;28;20178;-69
2021/06/18 01:31:45;;;;;;;0.63;0.63;;;19.10;99.90;;;;;;4972365;28;20207;-69
2021/06/18 01:34:24;;;;;;;0.82;0.82;;;19.10;99.90;;;;;;4988679;28;20175;-69
2021/06/18 01:36:55;;;;;;;2.20;1.08;;;19.10;99.90;;;;;;4988379;28;20195;-69
2021/06/18 01:39:23;;;;;;;0.50;0.50;;;19.20;99.90;;;;;;4988490;28;20191;-69
2021/06/18 01:41:51;;;;;;;0.43;0.40;;;19.20;99.90;;;;;;4988081;28;20202;-69
2021/06/18 01:44:20;;;;;;;1.05;0.75;;;19.20;99.90;;;;;;4987488;28;20190;-70
2021/06/18 01:46:48;;;;;;;0.52;0.52;;;19.10;99.90;;;;;;4988135;28;20168;-69
2021/06/18 01:49:16;;;;;;;1.00;0.90;;;19.10;99.90;;;;;;4994353;28;20190;-69
2021/06/18 01:51:44;;;;;;;0.65;0.65;;;19.10;99.90;;;;;;5047990;28;20193;-69
2021/06/18 01:54:13;;;;;;;0.43;0.43;;;19.10;99.90;;;;;;5049277;28;20162;-69
2021/06/18 01:56:41;;;;;;;1.65;1.42;;;19.10;99.90;;;;;;5049215;28;20165;-69
2021/06/18 01:59:07;;;;;;;0.70;0.70;;;19.10;99.90;;;;;;5049139;28;20189;-69
2021/06/18 02:01:37;;;;;;;0.60;0.60;;;19.00;99.90;;;;;;5048140;28;20228;-69
2021/06/18 02:04:05;;;;;;;0.52;0.52;;;19.00;99.90;;;;;;5049113;28;20261;-69
2021/06/18 02:06:33;;;;;;;0.30;0.30;;;18.90;99.90;;;;;;5049118;28;20156;-69
2021/06/18 02:09:01;;;;;;;4.68;1.08;;;18.90;99.90;;;;;;5049165;28;20169;-69
2021/06/18 02:11:30;;;;;;;0.63;0.32;;;18.90;99.90;;;;;;5047542;28;20196;-69
2021/06/18 02:13:58;;;;;;;1.55;1.45;;;18.90;99.90;;;;;;5048915;28;20165;-69
2021/06/18 02:16:28;;;;;;;0.65;0.65;;;19.00;99.90;;;;;;5049039;28;20157;-69
2021/06/18 02:18:56;;;;;;;0.40;0.40;;;19.10;99.90;;;;;;5048785;28;20189;-69
2021/06/18 02:21:25;;;;;;;7.78;2.28;;;19.10;99.90;;;;;;5047468;28;20200;-69
2021/06/18 02:23:53;;;;;;;0.57;0.57;;;19.10;99.90;;;;;;5048383;28;20157;-69
2021/06/18 02:26:20;;;;;;;0.30;0.30;;;19.20;99.90;;;;;;5048879;28;20212;-69
2021/06/18 02:28:46;;;;;;;1.30;1.20;;;19.20;99.90;;;;;;5048847;28;20161;-69
2021/06/18 02:31:14;;;;;;;0.80;0.68;;;19.30;99.90;;;;;;5048727;28;20674;-69
2021/06/18 02:33:41;;;;;;;1.02;0.73;;;19.30;99.90;;;;;;5048468;28;20168;-69
2021/06/18 02:36:07;;;;;;;0.30;0.30;;;19.30;99.90;;;;;;5048615;28;20221;-69
2021/06/18 02:38:33;;;;;;;1.35;0.63;;;19.20;99.90;;;;;;5048533;28;20192;-69
2021/06/18 02:40:59;;;;;;;0.45;0.45;;;19.20;99.90;;;;;;5048571;28;20197;-69
2021/06/18 02:43:25;;;;;;;1.42;1.33;;;19.20;99.90;;;;;;5077671;28;20216;-69
2021/06/18 02:45:51;;;;;;;0.85;0.85;;;19.20;99.90;;;;;;5089125;28;20163;-69
2021/06/18 02:48:31;;;;;;;0.20;0.20;;;19.30;99.90;;;;;;5088933;28;20164;-69
2021/06/18 02:51:20;;;;;;;1.05;0.98;;;19.30;99.90;;;;;;5088973;28;20184;-69
2021/06/18 02:53:59;;;;;;;1.40;1.30;;;19.40;99.90;;;;;;5087731;28;20163;-69
2021/06/18 02:56:40;;;;;;;1.30;1.13;;;19.40;99.90;;;;;;5071004;28;20179;-69
2021/06/18 02:59:32;;;;;;;2.20;0.68;;;19.40;99.90;;;;;;5088725;28;20278;-69
2021/06/18 03:02:00;;;;;;;0.28;0.28;;;19.50;99.90;;;;;;5088917;28;20184;-69
2021/06/18 03:04:29;;;;;;;0.85;0.85;;;19.60;99.90;;;;;;5088306;28;20176;-69
2021/06/18 03:07:03;;;;;;;1.23;1.15;;;19.70;99.90;;;;;;5070645;28;20187;-69
2021/06/18 03:09:34;;;;;;;0.63;0.60;;;19.60;99.90;;;;;;5088800;28;20168;-68
2021/06/18 03:12:01;;;;;;;0.28;0.28;;;19.60;99.90;;;;;;5088662;28;20226;-69
2021/06/18 03:14:30;;;;;;;0.20;0.20;;;19.50;99.90;;;;;;5088896;28;20160;-69
2021/06/18 03:17:03;;;;;;;1.58;1.08;;;19.50;99.90;;;;;;5088831;28;20195;-69
2021/06/18 03:19:33;;;;;;;2.13;1.50;;;19.70;99.90;;;;;;5088532;28;20188;-69
2021/06/18 03:22:03;;;;;;;0.35;0.35;;;19.80;99.90;;;;;;5088699;28;20188;-69
2021/06/18 03:24:32;;;;;;;0.32;0.32;;;19.80;99.90;;;;;;5088804;28;20219;-69
2021/06/18 03:26:59;;;;;;;1.02;0.77;;;19.80;99.90;;;;;;5088304;28;20172;-69
2021/06/18 03:29:28;;;;;;;0.50;0.50;;;19.70;99.90;;;;;;5088048;28;20160;-69
2021/06/18 03:31:55;;;;;;;1.23;1.05;;;19.60;99.90;;;;;;5088625;28;20255;-69
2021/06/18 03:34:25;;;;;;;0.82;0.70;;;19.60;99.90;;;;;;5089899;28;20211;-69
2021/06/18 03:36:52;;;;;;;8.70;2.08;;;19.70;99.90;;;;;;5092150;28;20156;-69
2021/06/18 03:39:22;;;;;;;0.80;0.80;;;19.70;99.90;;;;;;5092117;28;20184;-69
2021/06/18 03:41:48;;;;;;;1.15;1.15;;;19.80;99.90;;;;;;5091931;28;20195;-69
2021/06/18 03:44:18;;;;;;;6.30;1.10;;;19.90;99.90;;;;;;5092059;28;20188;-69
2021/06/18 03:46:46;;;;;;;1.48;1.23;;;20.00;99.90;;;;;;5074142;28;20174;-69
2021/06/18 03:49:13;;;;;;;0.85;0.68;;;20.10;99.90;;;;;;5091778;28;20152;-69
2021/06/18 03:51:40;;;;;;;2.28;1.17;;;20.10;99.90;;;;;;5073775;28;20192;-69
2021/06/18 03:54:07;;;;;;;0.47;0.47;;;20.20;99.90;;;;;;5073940;28;20180;-69
2021/06/18 03:56:35;;;;;;;0.65;0.65;;;20.20;99.90;;;;;;5091702;28;20632;-69
2021/06/18 03:59:02;;;;;;;2.90;1.88;;;20.20;99.90;;;;;;5091597;28;20214;-69
2021/06/18 04:01:29;;;;;;;0.77;0.77;;;20.10;99.90;;;;;;5091515;28;20188;-69
2021/06/18 04:03:58;;;;;;;2.25;1.02;;;20.00;99.90;;;;;;5091938;28;20577;-69
2021/06/18 04:06:27;;;;;;;0.68;0.68;;;20.20;99.90;;;;;;5073550;28;20160;-69
2021/06/18 04:08:55;;;;;;;4.63;0.85;;;20.20;99.90;;;;;;5091396;28;20237;-69
2021/06/18 04:11:21;;;;;;;0.88;0.80;;;20.20;99.90;;;;;;5091557;28;20188;-69
2021/06/18 04:13:48;;;;;;;3.38;1.00;;;20.20;99.90;;;;;;5091454;28;20161;-69
2021/06/18 04:16:15;;;;;;;9.52;2.53;;;20.20;99.90;;;;;;5091549;28;20164;-69
2021/06/18 04:18:44;;;;;;;1.65;1.55;;;20.30;99.90;;;;;;5091399;28;20553;-69
2021/06/18 04:21:15;;;;;;;0.20;0.20;;;20.30;99.90;;;;;;5091157;28;20183;-69
2021/06/18 04:23:41;;;;;;;0.40;0.40;;;20.30;99.90;;;;;;5091282;28;20163;-69
2021/06/18 04:26:08;;;;;;;0.75;0.75;;;20.30;99.90;;;;;;5091186;28;20164;-69
2021/06/18 04:28:39;;;;;;;12.05;1.77;;;20.20;99.90;;;;;;5090690;28;20164;-69
2021/06/18 04:31:06;;;;;;;0.60;0.60;;;20.30;99.90;;;;;;5090716;28;20227;-69
2021/06/18 04:33:33;;;;;;;2.72;1.13;;;20.40;99.90;;;;;;5091121;28;20156;-68
2021/06/18 04:35:59;;;;;;;4.32;1.05;;;20.50;99.90;;;;;;5091076;28;20156;-68
2021/06/18 04:38:25;;;;;;;0.50;0.50;;;20.50;99.90;;;;;;5090694;28;20245;-68
2021/06/18 04:40:52;;;;;;;0.93;0.80;;;20.50;99.90;;;;;;5070666;28;20204;-69
2021/06/18 04:43:18;;;;;;;1.00;0.95;;;20.60;99.90;;;;;;5079337;28;20239;-69
2021/06/18 04:45:45;;;;;;;2.17;0.75;;;20.70;99.90;;;;;;5072572;28;20172;-69
2021/06/18 04:48:11;;;;;;;1.27;1.17;;;20.70;99.90;;;;;;5071016;28;20191;-69
2021/06/18 04:50:38;;;;;;;0.88;0.88;;;20.90;99.90;;;;;;5070543;28;20222;-69
2021/06/18 04:53:10;;;;;;;0.52;0.52;;;20.90;99.90;;;;;;5070514;28;20172;-68
2021/06/18 04:55:38;;;;;;;1.75;1.60;;;21.50;99.90;;;;;;5071241;28;20186;-69
2021/06/18 04:58:04;;;;;;;0.40;0.40;;;22.20;99.90;;;;;;5052005;28;20172;-68
2021/06/18 05:00:30;;;;;;;1.33;1.23;;;22.60;99.90;;;;;;5070258;28;20272;-69
2021/06/18 05:02:56;;;;;;;0.55;0.55;;;22.30;99.90;;;;;;5070518;28;20186;-69
2021/06/18 05:05:22;;;;;;;2.30;1.00;;;22.00;99.90;;;;;;5070249;28;20160;-69
2021/06/18 05:07:55;;;;;;;2.65;0.98;;;21.70;99.90;;;;;;5070415;28;20161;-69
2021/06/18 05:10:22;;;;;;;1.10;0.82;;;21.50;99.90;;;;;;5069775;28;20153;-69
2021/06/18 05:12:48;;;;;;;11.45;1.40;;;21.60;99.90;;;;;;5070152;28;20152;-69
2021/06/18 05:15:15;;;;;;;4.22;0.68;;;21.60;99.90;;;;;;5051966;28;20164;-69
2021/06/18 05:17:40;;;;;;;15.45;0.75;;;21.70;99.90;;;;;;5069263;28;20618;-69
2021/06/18 05:20:07;;;;;;;6.60;2.38;;;21.90;99.90;;;;;;5069825;28;20246;-69
2021/06/18 05:22:33;;;;;;;3.72;1.45;;;22.60;99.90;;;;;;5070107;28;20156;-69
2021/06/18 05:24:59;;;;;;;2.25;1.90;;;23.50;99.90;;;;;;5051634;28;20307;-69
2021/06/18 05:27:26;;;;;;;3.00;1.15;;;24.40;99.90;;;;;;5069679;28;20175;-69
2021/06/18 05:29:52;;;;;;;1.08;1.00;;;24.80;99.90;;;;;;5069751;28;20184;-69
2021/06/18 05:32:19;;;;;;;0.90;0.90;;;25.70;99.90;;;;;;5085804;28;20211;-69
2021/06/18 05:34:45;;;;;;;3.65;1.05;;;26.40;99.90;;;;;;5089530;28;20168;-68
2021/06/18 05:37:12;;;;;;;1.13;1.02;;;26.60;99.90;;;;;;5089586;28;20636;-69
2021/06/18 05:39:37;;;;;;;3.97;1.65;;;27.00;99.90;;;;;;5089151;28;20209;-69
2021/06/18 05:42:03;;;;;;;1.20;1.05;;;27.40;99.90;;;;;;5071302;28;20211;-69
2021/06/18 05:44:29;;;;;;;2.88;1.17;;;27.60;99.90;;;;;;5089391;28;20156;-69
2021/06/18 05:46:55;;;;;;;4.10;2.35;;;28.70;99.90;;;;;;5089421;28;20167;-69
2021/06/18 05:49:21;;;;;;;7.15;1.80;;;29.60;99.90;;;;;;5089459;28;20527;-69
2021/06/18 05:51:47;;;;;;;4.90;1.40;;;29.70;99.90;;;;;;5089517;28;20518;-69
2021/06/18 05:54:14;;;;;;;2.85;2.03;;;28.80;99.90;;;;;;5089578;28;20204;-69
2021/06/18 05:56:40;;;;;;;0.73;0.73;;;28.90;99.90;;;;;;5089292;28;20152;-69
2021/06/18 05:59:06;;;;;;;0.73;0.73;;;29.90;99.90;;;;;;5089396;28;20190;-69
2021/06/18 06:01:32;;;;;;;10.85;2.08;;;30.50;99.90;;;;;;5089410;28;20610;-69
2021/06/18 06:04:01;;;;;;;1.58;1.08;;;30.00;99.90;;;;;;5089225;28;20211;-69
2021/06/18 06:06:28;;;;;;;1.25;1.15;;;29.90;99.90;;;;;;5071502;28;20179;-69
2021/06/18 06:08:54;;;;;;;8.40;1.35;;;30.90;99.90;;;;;;5089194;28;20155;-69
2021/06/18 06:11:22;;;;;;;1.48;1.38;;;31.50;99.90;;;;;;5090627;28;20190;-69
2021/06/18 06:13:49;;;;;;;1.13;1.10;;;32.00;99.90;;;;;;5105711;28;20190;-69
2021/06/18 06:16:15;;;;;;;0.82;0.82;;;32.00;99.90;;;;;;5109553;28;20223;-69
2021/06/18 06:18:41;;;;;;;0.98;0.95;;;32.10;99.90;;;;;;5109260;28;20194;-68
2021/06/18 06:21:07;;;;;;;1.30;0.90;;;32.50;99.90;;;;;;5090909;28;20236;-69
2021/06/18 06:23:33;;;;;;;1.17;1.08;;;32.10;99.90;;;;;;5109443;28;20206;-69
2021/06/18 06:25:59;;;;;;;3.08;1.10;;;32.00;99.90;;;;;;5109384;28;20171;-69
2021/06/18 06:28:26;;;;;;;0.65;0.65;;;31.50;99.90;;;;;;5109475;28;20163;-66
2021/06/18 06:30:53;;;;;;;0.82;0.82;;;32.50;99.90;;;;;;5109057;28;20219;-68
2021/06/18 06:33:18;;;;;;;1.27;0.98;;;33.00;99.90;;;;;;5107293;28;20163;-69
2021/06/18 06:35:44;;;;;;;4.00;0.95;;;32.90;99.90;;;;;;5087555;28;20176;-69
2021/06/18 06:38:10;;;;;;;1.65;1.50;;;31.00;99.90;;;;;;5088850;28;20174;-69
2021/06/18 06:40:36;;;;;;;2.00;1.30;;;31.30;99.90;;;;;;5088838;28;20219;-68
2021/06/18 06:43:02;;;;;;;0.45;0.45;;;31.30;99.90;;;;;;5088687;28;20230;-68
2021/06/18 06:45:28;;;;;;;1.75;1.38;;;31.70;99.90;;;;;;5088907;28;20215;-69
2021/06/18 06:47:54;;;;;;;12.45;1.60;;;32.00;99.90;;;;;;5089099;28;20174;-69
2021/06/18 06:50:20;;;;;;;0.98;0.95;;;32.20;99.90;;;;;;5088847;28;20171;-67
2021/06/18 06:52:46;;;;;;;2.05;1.27;;;32.10;99.90;;;;;;5088211;28;20771;-68
2021/06/18 06:55:12;;;;;;;1.25;0.85;;;32.00;99.90;;;;;;5081210;28;20175;-69
2021/06/18 06:57:38;;;;;;;1.55;1.38;;;31.60;99.90;;;;;;5088266;28;20666;-69
2021/06/18 07:00:05;;;;;;;1.23;0.93;;;32.00;99.90;;;;;;5074442;28;20194;-70
2021/06/18 07:02:32;;;;;;;0.80;0.60;;;33.00;99.90;;;;;;5068546;28;20214;-70
2021/06/18 07:04:57;;;;;;;1.05;0.82;;;33.40;99.90;;;;;;5068711;28;20168;-71
2021/06/18 07:07:23;;;;;;;1.13;0.95;;;32.30;99.90;;;;;;5069440;28;20160;-69
2021/06/18 07:09:49;;;;;;;0.57;0.57;;;33.30;99.90;;;;;;5073056;28;20189;-68
2021/06/18 07:12:15;;;;;;;0.60;0.60;;;33.00;99.90;;;;;;5092578;28;20194;-68
2021/06/18 07:14:41;;;;;;;1.20;1.17;;;32.60;99.90;;;;;;5092631;28;20170;-68
2021/06/18 07:17:08;;;;;;;2.80;1.38;;;32.80;99.90;;;;;;5092479;28;20163;-67
2021/06/18 07:19:34;;;;;;;1.35;1.02;;;33.30;99.90;;;;;;5092537;28;20183;-68
2021/06/18 07:22:02;;;;;;;1.58;1.48;;;34.70;99.90;;;;;;5074311;28;20221;-67
2021/06/18 07:24:28;;;;;;;0.50;0.50;;;35.00;99.90;;;;;;5092602;28;20257;-68
2021/06/18 07:26:54;;;;;;;3.90;0.70;;;35.10;99.90;;;;;;5092334;28;20152;-67
2021/06/18 07:29:20;;;;;;;0.65;0.65;;;34.50;99.90;;;;;;5092220;28;20190;-67
2021/06/18 07:31:46;;;;;;;2.13;1.00;;;33.80;99.90;;;;;;5092323;28;20202;-67
2021/06/18 07:34:12;;;;;;;0.77;0.77;;;32.90;99.90;;;;;;5092205;28;20167;-68
2021/06/18 07:36:39;;;;;;;0.98;0.77;;;33.00;99.90;;;;;;5092197;28;20155;-68
2021/06/18 07:39:08;;;;;;;1.13;1.00;;;33.80;99.90;;;;;;5091810;28;20187;-67
2021/06/18 07:41:35;;;;;;;0.82;0.82;;;34.50;99.90;;;;;;5092126;28;20187;-68
2021/06/18 07:44:02;;;;;;;1.02;1.00;;;35.30;99.90;;;;;;5092036;28;20230;-67
2021/06/18 07:46:28;;;;;;;1.02;0.95;;;33.90;99.90;;;;;;5091894;28;20174;-67
2021/06/18 07:48:54;;;;;;;1.40;1.13;;;32.70;99.90;;;;;;5087828;28;20179;-67
2021/06/18 07:51:20;;;;;;;4.15;0.80;;;32.70;99.90;;;;;;5087669;28;20225;-68
2021/06/18 07:53:46;;;;;;;0.65;0.65;;;33.80;99.90;;;;;;5088390;28;20659;-68
2021/06/18 07:56:12;;;;;;;0.98;0.88;;;35.00;99.90;;;;;;5071271;28;20179;-68
2021/06/18 07:58:39;;;;;;;0.57;0.57;;;35.40;99.90;;;;;;5071148;28;20215;-68
2021/06/18 08:01:06;;;;;;;1.55;1.33;;;36.00;99.70;;;;;;5052959;28;20222;-68
2021/06/18 08:03:31;;;;;;;1.05;0.95;;;36.70;99.00;;;;;;5071138;28;20187;-68
2021/06/18 08:05:57;;;;;;;0.70;0.70;;;37.00;98.70;;;;;;5074007;28;20163;-68
2021/06/18 08:08:23;;;;;;;1.95;1.13;;;37.00;98.20;;;;;;5072779;28;20168;-67
2021/06/18 08:10:49;;;;;;;0.80;0.80;;;36.40;98.70;;;;;;5090916;28;20225;-68
2021/06/18 08:13:15;;;;;;;1.38;1.10;;;35.50;99.40;;;;;;5090882;28;20226;-68
2021/06/18 08:15:41;;;;;;;0.95;0.65;;;35.80;99.90;;;;;;5090765;28;20167;-68
2021/06/18 08:18:06;;;;;;;0.70;0.70;;;36.30;98.90;;;;;;5072246;28;20175;-68
2021/06/18 08:20:33;;;;;;;1.35;1.08;;;36.00;97.50;;;;;;5090741;28;20174;-67
2021/06/18 08:22:59;;;;;;;1.17;1.08;;;34.20;98.90;;;;;;5085475;28;20270;-68
2021/06/18 08:25:25;;;;;;;0.77;0.77;;;33.20;99.60;;;;;;5083829;28;20177;-67
2021/06/18 08:27:51;;;;;;;0.73;0.73;;;33.10;99.90;;;;;;5090693;28;20148;-67
2021/06/18 08:30:18;;;;;;;0.90;0.88;;;33.60;99.90;;;;;;5072550;28;20165;-67
2021/06/18 08:32:43;;;;;;;1.10;1.00;;;33.70;99.90;;;;;;5070540;28;20220;-67
2021/06/18 08:35:09;;;;;;;0.82;0.82;;;32.90;99.40;;;;;;5070390;28;20629;-67
2021/06/18 08:37:35;;;;;;;0.98;0.95;;;32.40;99.90;;;;;;5070395;28;20168;-68
2021/06/18 08:40:03;;;;;;;1.60;0.90;;;32.70;99.90;;;;;;5075238;28;20207;-68
2021/06/18 08:42:29;;;;;;;0.70;0.70;;;33.00;99.90;;;;;;5075999;28;20288;-68
2021/06/18 08:44:55;;;;;;;0.65;0.65;;;34.80;99.60;;;;;;5070279;28;20176;-67
2021/06/18 08:47:21;;;;;;;1.30;1.20;;;35.80;98.00;;;;;;5062319;28;20192;-67
2021/06/18 08:49:47;;;;;;;0.80;0.60;;;36.30;98.70;;;;;;5069920;28;20313;-68
2021/06/18 08:52:14;;;;;;;1.55;1.17;;;36.50;96.80;;;;;;5060673;28;20252;-68
2021/06/18 08:54:43;;;;;;;1.25;0.90;;;36.30;96.50;;;;;;5050243;28;20164;-67
2021/06/18 08:57:22;;;;;;;0.80;0.80;;;35.60;95.80;;;;;;5050004;28;20218;-68
2021/06/18 08:59:49;;;;;;;1.10;0.68;;;35.10;97.30;;;;;;5048142;28;20196;-67
2021/06/18 09:02:16;;;;;;;0.60;0.60;;;34.60;99.00;;;;;;5049922;28;20193;-67
2021/06/18 09:05:08;;;;;;;0.70;0.63;;;34.90;98.00;;;;;;5061635;28;20167;-67
2021/06/18 09:07:55;;;;;;;2.47;1.60;;;34.90;97.10;;;;;;5069966;28;20159;-67
2021/06/18 09:10:42;;;;;;;0.60;0.60;;;33.80;97.30;;;;;;5068807;28;20232;-67
2021/06/18 09:13:17;;;;;;;0.80;0.80;;;32.90;99.50;;;;;;5068430;28;20254;-67
2021/06/18 09:15:56;;;;;;;1.75;1.20;;;33.00;99.90;;;;;;5069798;28;20164;-67
2021/06/18 09:18:34;;;;;;;1.38;0.57;;;32.90;98.80;;;;;;5069601;28;20241;-67
2021/06/18 09:21:02;;;;;;;2.60;1.83;;;33.50;98.80;;;;;;5069651;28;20694;-67
2021/06/18 09:23:36;;;;;;;3.50;1.30;;;34.60;98.60;;;;;;5071712;28;20513;-67
2021/06/18 09:26:21;;;;;;;0.70;0.63;;;35.40;96.90;;;;;;5073562;28;20202;-67
2021/06/18 09:28:56;;;;;;;0.75;0.60;;;36.50;96.50;;;;;;5086233;28;20179;-67
2021/06/18 09:31:24;;;;;;;2.28;0.93;;;34.40;95.80;;;;;;5088042;28;20159;-67
2021/06/18 09:33:49;;;;;;;0.85;0.85;;;33.30;97.40;;;;;;5080542;28;20178;-67
2021/06/18 09:36:16;;;;;;;0.40;0.40;;;34.00;98.50;;;;;;5068430;28;20204;-67
2021/06/18 09:38:46;;;;;;;1.67;0.95;;;34.10;96.70;;;;;;5069000;28;20196;-67
2021/06/18 09:41:31;;;;;;;1.10;0.85;;;34.30;97.10;;;;;;5057682;28;20310;-67
2021/06/18 09:44:05;;;;;;;1.02;0.98;;;33.80;97.00;;;;;;5067668;28;20246;-67
2021/06/18 09:46:44;;;;;;;1.95;1.50;;;33.50;98.40;;;;;;5069006;28;20290;-67
2021/06/18 09:49:33;;;;;;;2.35;0.80;;;34.30;98.30;;;;;;5069018;28;20163;-67
2021/06/18 09:52:03;;;;;;;0.90;0.73;;;35.40;96.80;;;;;;5058703;28;20192;-67
2021/06/18 09:54:32;;;;;;;0.30;0.30;;;34.70;98.60;;;;;;5068868;28;20194;-67
2021/06/18 09:57:17;;;;;;;0.82;0.82;;;33.80;97.80;;;;;;5069089;28;20202;-67
2021/06/18 09:59:45;;;;;;;1.23;1.13;;;32.70;98.60;;;;;;5069019;28;20194;-67
2021/06/18 10:02:11;;;;;;;0.68;0.68;;;32.90;99.90;;;;;;5051018;28;20179;-67
2021/06/18 10:04:38;;;;;;;2.58;1.77;;;33.10;99.20;;;;;;5069051;28;20160;-68
2021/06/18 10:07:04;;;;;;;0.60;0.32;;;33.50;99.60;;;;;;5052404;28;20610;-68
2021/06/18 10:09:30;;;;;;;1.25;0.80;;;33.60;97.60;;;;;;5050924;28;20176;-68
2021/06/18 10:11:57;;;;;;;0.47;0.47;;;34.50;97.30;;;;;;5068715;28;20207;-69
2021/06/18 10:14:22;;;;;;;1.20;0.98;;;35.60;97.00;;;;;;5068086;28;20191;-69
2021/06/18 10:16:48;;;;;;;2.08;1.63;;;36.00;97.70;;;;;;5074629;28;20567;-68
2021/06/18 10:19:17;;;;;;;1.08;1.08;;;35.10;96.40;;;;;;5088505;28;20195;-68
2021/06/18 10:22:06;;;;;;;2.83;0.90;;;33.80;97.30;;;;;;5088790;28;20151;-68
2021/06/18 10:24:57;;;;;;;0.40;0.40;;;34.40;97.70;;;;;;5070057;28;20179;-68
2021/06/18 10:27:40;;;;;;;0.50;0.50;;;34.30;96.60;;;;;;5060278;28;20523;-69
2021/06/18 10:30:45;;;;;;;1.15;1.08;;;34.00;97.30;;;;;;5050487;28;20263;-68
2021/06/18 10:33:26;;;;;;;1.58;1.48;;;34.20;97.60;;;;;;5054509;28;20207;-68
2021/06/18 10:36:14;;;;;;;1.23;1.00;;;34.20;97.10;;;;;;5068497;28;20192;-68
2021/06/18 10:38:41;;;;;;;1.65;1.05;;;33.00;98.50;;;;;;5068181;28;20188;-68
2021/06/18 10:41:12;;;;;;;0.93;0.50;;;34.20;98.70;;;;;;5067954;28;20276;-68
2021/06/18 10:43:43;;;;;;;1.48;1.38;;;35.50;97.10;;;;;;5088171;28;20241;-69
2021/06/18 10:46:16;;;;;;;0.50;0.43;;;36.20;96.30;;;;;;5092616;28;20209;-69
2021/06/18 10:48:52;;;;;;;0.68;0.68;;;36.20;95.60;;;;;;5074629;28;20190;-68
2021/06/18 10:51:30;;;;;;;1.00;0.95;;;35.70;97.00;;;;;;5092266;28;20197;-68
2021/06/18 10:54:05;;;;;;;1.88;1.40;;;34.80;96.50;;;;;;5092257;28;20171;-68
2021/06/18 10:56:46;;;;;;;0.82;0.80;;;33.90;97.00;;;;;;5083154;28;20520;-68
2021/06/18 10:59:16;;;;;;;0.80;0.80;;;33.10;98.10;;;;;;5078348;28;20183;-68
2021/06/18 11:01:44;;;;;;;0.73;0.50;;;32.90;98.60;;;;;;5054918;28;20218;-68
2021/06/18 11:04:10;;;;;;;0.75;0.75;;;33.70;99.40;;;;;;5092321;28;20172;-68
2021/06/18 11:06:51;;;;;;;1.75;1.00;;;34.40;97.50;;;;;;5092125;28;20573;-68
2021/06/18 11:09:47;;;;;;;1.60;0.93;;;33.80;97.60;;;;;;5091999;28;20243;-68
2021/06/18 11:12:25;;;;;;;2.25;1.25;;;34.00;98.30;;;;;;5091868;28;20534;-68
2021/06/18 11:15:00;;;;;;;0.70;0.68;;;35.20;96.40;;;;;;5082776;28;20259;-68
2021/06/18 11:17:41;;;;;;;1.33;1.20;;;35.00;96.10;;;;;;5053981;28;20202;-68
2021/06/18 11:20:21;;;;;;;0.80;0.80;;;34.00;95.90;;;;;;5075361;28;20217;-68
2021/06/18 11:22:53;;;;;;;0.93;0.93;;;33.90;96.90;;;;;;5072102;28;20160;-68
2021/06/18 11:25:40;;;;;;;1.00;1.00;;;33.40;97.30;;;;;;5072385;28;20156;-68
2021/06/18 11:28:21;;;;;;;0.45;0.32;;;33.50;97.10;;;;;;5054270;28;20558;-68
2021/06/18 11:30:55;;;;;;;1.30;1.05;;;33.50;98.80;;;;;;5072287;28;20514;-68
2021/06/18 11:33:44;;;;;;;2.88;1.38;;;33.00;98.50;;;;;;5054098;28;20167;-69
2021/06/18 11:36:17;;;;;;;2.72;1.15;;;33.60;98.30;;;;;;5104601;28;20194;-68
2021/06/18 11:39:06;;;;;;;0.65;0.65;;;33.60;97.60;;;;;;5111364;28;20182;-69
2021/06/18 11:41:39;;;;;;;1.77;0.95;;;32.70;99.30;;;;;;5078752;28;20187;-69
2021/06/18 11:44:05;;;;;;;0.93;0.90;;;33.80;97.90;;;;;;5091958;28;20215;-69
2021/06/18 11:46:33;;;;;;;0.85;0.57;;;34.60;98.00;;;;;;5091706;28;20202;-69
2021/06/18 11:49:15;;;;;;;0.88;0.88;;;35.20;97.30;;;;;;5091981;28;20159;-69
2021/06/18 11:51:42;;;;;;;1.30;0.57;;;35.10;97.40;;;;;;5086510;28;20581;-70
2021/06/18 11:54:08;;;;;;;0.80;0.77;;;34.30;98.00;;;;;;5108325;28;20183;-69
2021/06/18 11:56:36;;;;;;;3.45;1.08;;;33.60;98.30;;;;;;5107050;28;20648;-69
2021/06/18 11:59:12;;;;;;;1.00;1.00;;;33.80;99.40;;;;;;5073621;28;20252;-69
2021/06/18 12:01:38;;;;;;;4.03;1.15;;;34.20;97.90;;;;;;5105241;28;20174;-69
2021/06/18 12:04:12;;;;;;;1.50;1.33;;;34.30;97.50;;;;;;5111801;28;20162;-68
2021/06/18 12:06:39;;;;;;;3.53;2.13;;;33.40;98.10;;;;;;5111850;28;20163;-68
2021/06/18 12:09:14;;;;;;;2.08;1.48;;;32.40;98.70;;;;;;5101564;28;20187;-68
2021/06/18 12:11:42;;;;;;;2.63;1.30;;;32.90;98.00;;;;;;5084308;28;20197;-68
2021/06/18 12:14:10;;;;;;;2.50;0.95;;;33.70;97.70;;;;;;5091015;28;20175;-68
2021/06/18 12:16:42;;;;;;;1.50;0.70;;;33.20;97.90;;;;;;5071084;28;20195;-68
2021/06/18 12:19:28;;;;;;;1.25;0.73;;;32.70;99.00;;;;;;5052634;28;20263;-67
2021/06/18 12:22:00;;;;;;;0.88;0.75;;;32.90;99.10;;;;;;5084079;28;20230;-68
2021/06/18 12:24:33;;;;;;;11.93;1.27;;;32.30;98.90;;;;;;5072670;28;20171;-67
2021/06/18 12:27:02;;;;;;;1.17;1.10;;;32.00;99.90;;;;;;5090493;28;20159;-67
2021/06/18 12:29:28;;;;;;;1.83;1.23;;;32.30;99.90;;;;;;5090502;28;20156;-67
2021/06/18 12:31:56;;;;;;;2.95;1.13;;;32.40;99.90;;;;;;5072647;28;20650;-69
2021/06/18 12:34:22;;;;;;;1.95;0.60;;;32.20;98.50;;;;;;5090582;28;20159;-69
2021/06/18 12:36:56;;;;;;;0.63;0.63;;;31.50;99.50;;;;;;5090311;28;20175;-68
2021/06/18 12:39:23;;;;;;;1.40;1.30;;;30.90;99.90;;;;;;5072444;28;20206;-69
2021/06/18 12:41:49;;;;;;;0.68;0.65;;;31.00;99.90;;;;;;5087788;28;20187;-69
2021/06/18 12:44:15;;;;;;;2.28;1.00;;;30.70;99.90;;;;;;5090136;28;20160;-69
2021/06/18 12:46:54;;;;;;;0.73;0.73;;;30.90;99.90;;;;;;5090395;28;20166;-69
2021/06/18 12:49:28;;;;;;;0.95;0.95;;;31.00;99.90;;;;;;5090206;28;20159;-68
2021/06/18 12:52:14;;;;;;;0.70;0.70;;;31.20;99.90;;;;;;5072146;28;20183;-69
2021/06/18 12:54:41;;;;;;;0.77;0.77;;;31.00;99.50;;;;;;5090327;28;20329;-68
2021/06/18 12:57:22;;;;;;;0.75;0.75;;;31.00;99.80;;;;;;5089934;28;20171;-69
2021/06/18 12:59:48;;;;;;;1.15;0.47;;;31.10;99.90;;;;;;5071913;28;20219;-69